sensor_id;sensor_type;location;lat;lon;timestamp;temperature;humidity
51613;DHT22;37694;51.748;14.326;2023-11-21T00:00:55;22.80;49.10
51613;DHT22;37694;51.748;14.326;2023-11-21T00:03:20;22.80;49.10
51613;DHT22;37694;51.748;14.326;2023-11-21T00:05:49;22.80;49.10
51613;DHT22;37694;51.748;14.326;2023-11-21T00:08:14;22.80;49.00
51613;DHT22;37694;51.748;14.326;2023-11-21T00:10:40;22.80;49.10
51613;DHT22;37694;51.748;14.326;2023-11-21T00:13:06;22.80;49.70
51613;DHT22;37694;51.748;14.326;2023-11-21T00:15:31;22.70;49.60
51613;DHT22;37694;51.748;14.326;2023-11-21T00:17:57;22.70;49.30
51613;DHT22;37694;51.748;14.326;2023-11-21T00:20:23;22.70;49.70
51613;DHT22;37694;51.748;14.326;2023-11-21T00:22:49;22.70;49.50
51613;DHT22;37694;51.748;14.326;2023-11-21T00:25:14;22.70;49.60
51613;DHT22;37694;51.748;14.326;2023-11-21T00:27:42;22.70;49.60
51613;DHT22;37694;51.748;14.326;2023-11-21T00:30:08;22.70;49.30
51613;DHT22;37694;51.748;14.326;2023-11-21T00:32:36;22.70;49.20
51613;DHT22;37694;51.748;14.326;2023-11-21T00:35:02;22.70;49.10
51613;DHT22;37694;51.748;14.326;2023-11-21T00:37:28;22.70;49.10
51613;DHT22;37694;51.748;14.326;2023-11-21T00:39:53;22.70;49.20
51613;DHT22;37694;51.748;14.326;2023-11-21T00:42:19;22.60;49.10
51613;DHT22;37694;51.748;14.326;2023-11-21T00:44:45;22.60;49.20
51613;DHT22;37694;51.748;14.326;2023-11-21T00:47:10;22.70;49.30
51613;DHT22;37694;51.748;14.326;2023-11-21T00:49:36;22.70;49.40
51613;DHT22;37694;51.748;14.326;2023-11-21T00:52:02;22.60;49.20
51613;DHT22;37694;51.748;14.326;2023-11-21T00:54:28;22.60;49.20
51613;DHT22;37694;51.748;14.326;2023-11-21T00:56:53;22.60;49.40
51613;DHT22;37694;51.748;14.326;2023-11-21T00:59:19;22.60;49.50
51613;DHT22;37694;51.748;14.326;2023-11-21T01:01:45;22.60;49.30
51613;DHT22;37694;51.748;14.326;2023-11-21T01:04:10;22.60;49.30
51613;DHT22;37694;51.748;14.326;2023-11-21T01:06:36;22.60;49.50
51613;DHT22;37694;51.748;14.326;2023-11-21T01:09:02;22.60;49.60
51613;DHT22;37694;51.748;14.326;2023-11-21T01:11:36;22.60;49.70
51613;DHT22;37694;51.748;14.326;2023-11-21T01:14:03;22.50;49.30
51613;DHT22;37694;51.748;14.326;2023-11-21T01:16:29;22.50;49.20
51613;DHT22;37694;51.748;14.326;2023-11-21T01:18:58;22.50;49.20
51613;DHT22;37694;51.748;14.326;2023-11-21T01:21:24;22.50;49.20
51613;DHT22;37694;51.748;14.326;2023-11-21T01:23:50;22.50;50.10
51613;DHT22;37694;51.748;14.326;2023-11-21T01:26:16;22.50;49.20
51613;DHT22;37694;51.748;14.326;2023-11-21T01:28:41;22.50;49.20
51613;DHT22;37694;51.748;14.326;2023-11-21T01:31:07;22.50;49.30
51613;DHT22;37694;51.748;14.326;2023-11-21T01:33:33;22.50;49.30
51613;DHT22;37694;51.748;14.326;2023-11-21T01:35:59;22.50;49.20
51613;DHT22;37694;51.748;14.326;2023-11-21T01:38:25;22.50;49.20
51613;DHT22;37694;51.748;14.326;2023-11-21T01:40:51;22.50;49.30
51613;DHT22;37694;51.748;14.326;2023-11-21T01:43:17;22.50;49.40
51613;DHT22;37694;51.748;14.326;2023-11-21T01:45:42;22.50;49.70
51613;DHT22;37694;51.748;14.326;2023-11-21T01:48:10;22.50;49.90
51613;DHT22;37694;51.748;14.326;2023-11-21T01:50:36;22.50;49.80
51613;DHT22;37694;51.748;14.326;2023-11-21T01:53:02;22.40;49.40
51613;DHT22;37694;51.748;14.326;2023-11-21T01:55:28;22.40;49.40
51613;DHT22;37694;51.748;14.326;2023-11-21T01:57:56;22.40;49.40
51613;DHT22;37694;51.748;14.326;2023-11-21T02:00:22;22.40;49.20
51613;DHT22;37694;51.748;14.326;2023-11-21T02:02:49;22.40;49.20
51613;DHT22;37694;51.748;14.326;2023-11-21T02:05:16;22.40;49.20
51613;DHT22;37694;51.748;14.326;2023-11-21T02:07:44;22.40;49.20
51613;DHT22;37694;51.748;14.326;2023-11-21T02:10:10;22.40;49.30
51613;DHT22;37694;51.748;14.326;2023-11-21T02:12:43;22.40;49.30
51613;DHT22;37694;51.748;14.326;2023-11-21T02:15:13;22.40;49.20
51613;DHT22;37694;51.748;14.326;2023-11-21T02:17:47;22.30;49.20
51613;DHT22;37694;51.748;14.326;2023-11-21T02:20:13;22.30;49.30
51613;DHT22;37694;51.748;14.326;2023-11-21T02:22:52;22.40;49.20
51613;DHT22;37694;51.748;14.326;2023-11-21T02:25:30;22.40;49.30
51613;DHT22;37694;51.748;14.326;2023-11-21T02:28:03;22.30;49.10
51613;DHT22;37694;51.748;14.326;2023-11-21T02:30:29;22.30;49.20
51613;DHT22;37694;51.748;14.326;2023-11-21T02:32:57;22.30;49.50
51613;DHT22;37694;51.748;14.326;2023-11-21T02:35:23;22.30;49.30
51613;DHT22;37694;51.748;14.326;2023-11-21T02:37:51;22.30;49.30
51613;DHT22;37694;51.748;14.326;2023-11-21T02:40:17;22.30;49.20
51613;DHT22;37694;51.748;14.326;2023-11-21T02:42:44;22.30;49.20
51613;DHT22;37694;51.748;14.326;2023-11-21T02:45:10;22.30;49.20
51613;DHT22;37694;51.748;14.326;2023-11-21T02:47:39;22.30;49.20
51613;DHT22;37694;51.748;14.326;2023-11-21T02:50:05;22.30;49.20
51613;DHT22;37694;51.748;14.326;2023-11-21T02:52:33;22.20;49.20
51613;DHT22;37694;51.748;14.326;2023-11-21T02:54:59;22.30;49.20
51613;DHT22;37694;51.748;14.326;2023-11-21T02:57:25;22.20;49.20
51613;DHT22;37694;51.748;14.326;2023-11-21T02:59:50;22.30;49.30
51613;DHT22;37694;51.748;14.326;2023-11-21T03:02:16;22.20;49.40
51613;DHT22;37694;51.748;14.326;2023-11-21T03:04:42;22.20;49.30
51613;DHT22;37694;51.748;14.326;2023-11-21T03:07:09;22.20;49.20
51613;DHT22;37694;51.748;14.326;2023-11-21T03:09:35;22.20;49.20
51613;DHT22;37694;51.748;14.326;2023-11-21T03:12:01;22.20;49.50
51613;DHT22;37694;51.748;14.326;2023-11-21T03:14:26;22.20;49.20
51613;DHT22;37694;51.748;14.326;2023-11-21T03:16:52;22.20;49.30
51613;DHT22;37694;51.748;14.326;2023-11-21T03:19:18;22.20;49.40
51613;DHT22;37694;51.748;14.326;2023-11-21T03:21:43;22.20;49.50
51613;DHT22;37694;51.748;14.326;2023-11-21T03:24:09;22.20;49.30
51613;DHT22;37694;51.748;14.326;2023-11-21T03:26:35;22.10;49.30
51613;DHT22;37694;51.748;14.326;2023-11-21T03:29:00;22.10;49.60
51613;DHT22;37694;51.748;14.326;2023-11-21T03:31:26;22.10;49.30
51613;DHT22;37694;51.748;14.326;2023-11-21T03:33:52;22.10;49.50
51613;DHT22;37694;51.748;14.326;2023-11-21T03:36:19;22.20;49.40
51613;DHT22;37694;51.748;14.326;2023-11-21T03:38:45;22.10;49.30
51613;DHT22;37694;51.748;14.326;2023-11-21T03:41:11;22.10;49.50
51613;DHT22;37694;51.748;14.326;2023-11-21T03:43:37;22.10;49.40
51613;DHT22;37694;51.748;14.326;2023-11-21T03:46:03;22.10;49.30
51613;DHT22;37694;51.748;14.326;2023-11-21T03:48:29;22.10;50.20
51613;DHT22;37694;51.748;14.326;2023-11-21T03:50:55;22.10;49.30
51613;DHT22;37694;51.748;14.326;2023-11-21T03:53:20;22.10;49.30
51613;DHT22;37694;51.748;14.326;2023-11-21T03:55:46;22.10;49.30
51613;DHT22;37694;51.748;14.326;2023-11-21T03:58:12;22.10;49.40
51613;DHT22;37694;51.748;14.326;2023-11-21T04:00:38;22.10;49.40
51613;DHT22;37694;51.748;14.326;2023-11-21T04:03:03;22.10;49.60
51613;DHT22;37694;51.748;14.326;2023-11-21T04:05:30;22.10;49.50
51613;DHT22;37694;51.748;14.326;2023-11-21T04:07:56;22.10;49.70
51613;DHT22;37694;51.748;14.326;2023-11-21T04:10:22;22.10;49.80
51613;DHT22;37694;51.748;14.326;2023-11-21T04:12:47;22.10;49.60
51613;DHT22;37694;51.748;14.326;2023-11-21T04:15:14;22.20;49.70
51613;DHT22;37694;51.748;14.326;2023-11-21T04:17:40;22.20;49.70
51613;DHT22;37694;51.748;14.326;2023-11-21T04:20:07;22.30;49.60
51613;DHT22;37694;51.748;14.326;2023-11-21T04:22:41;22.40;49.50
51613;DHT22;37694;51.748;14.326;2023-11-21T04:25:10;22.50;49.50
51613;DHT22;37694;51.748;14.326;2023-11-21T04:27:37;22.50;49.50
51613;DHT22;37694;51.748;14.326;2023-11-21T04:30:04;22.60;49.90
51613;DHT22;37694;51.748;14.326;2023-11-21T04:32:30;22.70;49.50
51613;DHT22;37694;51.748;14.326;2023-11-21T04:34:56;22.70;50.10
51613;DHT22;37694;51.748;14.326;2023-11-21T04:37:22;22.80;49.20
51613;DHT22;37694;51.748;14.326;2023-11-21T04:39:48;22.90;49.10
51613;DHT22;37694;51.748;14.326;2023-11-21T04:42:13;23.00;49.10
51613;DHT22;37694;51.748;14.326;2023-11-21T04:44:39;23.00;49.00
51613;DHT22;37694;51.748;14.326;2023-11-21T04:47:06;23.10;49.00
51613;DHT22;37694;51.748;14.326;2023-11-21T04:49:33;23.10;48.90
51613;DHT22;37694;51.748;14.326;2023-11-21T04:51:59;23.20;48.90
51613;DHT22;37694;51.748;14.326;2023-11-21T04:54:25;23.20;48.90
51613;DHT22;37694;51.748;14.326;2023-11-21T04:56:50;23.20;48.80
51613;DHT22;37694;51.748;14.326;2023-11-21T04:59:16;23.30;48.90
51613;DHT22;37694;51.748;14.326;2023-11-21T05:01:42;23.30;49.60
51613;DHT22;37694;51.748;14.326;2023-11-21T05:04:07;23.30;48.90
51613;DHT22;37694;51.748;14.326;2023-11-21T05:06:34;23.30;48.80
51613;DHT22;37694;51.748;14.326;2023-11-21T05:09:00;23.30;48.70
51613;DHT22;37694;51.748;14.326;2023-11-21T05:11:26;23.30;48.60
51613;DHT22;37694;51.748;14.326;2023-11-21T05:13:52;23.30;48.60
51613;DHT22;37694;51.748;14.326;2023-11-21T05:16:19;23.30;48.60
51613;DHT22;37694;51.748;14.326;2023-11-21T05:18:45;23.30;48.60
51613;DHT22;37694;51.748;14.326;2023-11-21T05:21:11;23.40;48.70
51613;DHT22;37694;51.748;14.326;2023-11-21T05:23:37;23.30;48.60
51613;DHT22;37694;51.748;14.326;2023-11-21T05:26:03;23.30;48.60
51613;DHT22;37694;51.748;14.326;2023-11-21T05:28:29;23.30;48.60
51613;DHT22;37694;51.748;14.326;2023-11-21T05:30:54;23.30;48.60
51613;DHT22;37694;51.748;14.326;2023-11-21T05:33:20;23.30;48.80
51613;DHT22;37694;51.748;14.326;2023-11-21T05:35:46;23.30;48.60
51613;DHT22;37694;51.748;14.326;2023-11-21T05:38:14;23.30;48.60
51613;DHT22;37694;51.748;14.326;2023-11-21T05:40:39;23.30;49.50
51613;DHT22;37694;51.748;14.326;2023-11-21T05:43:06;23.30;48.70
51613;DHT22;37694;51.748;14.326;2023-11-21T05:45:32;23.20;48.80
51613;DHT22;37694;51.748;14.326;2023-11-21T05:47:58;23.20;48.90
51613;DHT22;37694;51.748;14.326;2023-11-21T05:50:24;23.20;49.60
51613;DHT22;37694;51.748;14.326;2023-11-21T05:52:50;23.20;49.30
51613;DHT22;37694;51.748;14.326;2023-11-21T05:55:16;23.20;53.60
51613;DHT22;37694;51.748;14.326;2023-11-21T05:57:44;23.30;55.70
51613;DHT22;37694;51.748;14.326;2023-11-21T06:00:12;23.40;55.90
51613;DHT22;37694;51.748;14.326;2023-11-21T06:02:48;23.40;55.00
51613;DHT22;37694;51.748;14.326;2023-11-21T06:05:17;23.50;54.70
51613;DHT22;37694;51.748;14.326;2023-11-21T06:07:43;23.50;54.80
51613;DHT22;37694;51.748;14.326;2023-11-21T06:10:11;23.60;54.70
51613;DHT22;37694;51.748;14.326;2023-11-21T06:12:38;23.60;54.80
51613;DHT22;37694;51.748;14.326;2023-11-21T06:15:06;23.60;54.50
51613;DHT22;37694;51.748;14.326;2023-11-21T06:17:35;23.70;54.30
51613;DHT22;37694;51.748;14.326;2023-11-21T06:20:08;23.60;54.00
51613;DHT22;37694;51.748;14.326;2023-11-21T06:22:40;23.70;54.30
51613;DHT22;37694;51.748;14.326;2023-11-21T06:25:07;23.70;54.80
51613;DHT22;37694;51.748;14.326;2023-11-21T06:27:39;23.70;53.70
51613;DHT22;37694;51.748;14.326;2023-11-21T06:30:05;23.70;53.70
51613;DHT22;37694;51.748;14.326;2023-11-21T06:32:38;23.70;53.40
51613;DHT22;37694;51.748;14.326;2023-11-21T06:35:06;23.70;52.80
51613;DHT22;37694;51.748;14.326;2023-11-21T06:37:32;23.60;52.30
51613;DHT22;37694;51.748;14.326;2023-11-21T06:39:59;23.60;52.30
51613;DHT22;37694;51.748;14.326;2023-11-21T06:42:25;23.50;50.90
51613;DHT22;37694;51.748;14.326;2023-11-21T06:44:52;23.50;50.90
51613;DHT22;37694;51.748;14.326;2023-11-21T06:47:19;23.40;50.80
51613;DHT22;37694;51.748;14.326;2023-11-21T06:49:50;23.40;51.00
51613;DHT22;37694;51.748;14.326;2023-11-21T06:52:16;23.40;50.90
51613;DHT22;37694;51.748;14.326;2023-11-21T06:54:42;23.30;50.80
51613;DHT22;37694;51.748;14.326;2023-11-21T06:57:08;23.30;50.70
51613;DHT22;37694;51.748;14.326;2023-11-21T06:59:34;23.30;50.60
51613;DHT22;37694;51.748;14.326;2023-11-21T07:01:59;23.30;50.30
51613;DHT22;37694;51.748;14.326;2023-11-21T07:04:25;23.30;50.30
51613;DHT22;37694;51.748;14.326;2023-11-21T07:06:53;23.30;50.20
51613;DHT22;37694;51.748;14.326;2023-11-21T07:09:18;23.20;50.00
51613;DHT22;37694;51.748;14.326;2023-11-21T07:11:50;23.20;50.00
51613;DHT22;37694;51.748;14.326;2023-11-21T07:14:16;23.20;50.00
51613;DHT22;37694;51.748;14.326;2023-11-21T07:16:42;23.10;49.90
51613;DHT22;37694;51.748;14.326;2023-11-21T07:19:08;23.10;49.80
51613;DHT22;37694;51.748;14.326;2023-11-21T07:21:37;23.20;49.80
51613;DHT22;37694;51.748;14.326;2023-11-21T07:24:03;23.10;49.90
51613;DHT22;37694;51.748;14.326;2023-11-21T07:26:30;23.10;49.90
51613;DHT22;37694;51.748;14.326;2023-11-21T07:28:56;23.10;50.20
51613;DHT22;37694;51.748;14.326;2023-11-21T07:31:22;23.10;49.40
51613;DHT22;37694;51.748;14.326;2023-11-21T07:33:49;23.10;49.30
51613;DHT22;37694;51.748;14.326;2023-11-21T07:36:16;23.10;49.10
51613;DHT22;37694;51.748;14.326;2023-11-21T07:38:44;23.10;48.70
51613;DHT22;37694;51.748;14.326;2023-11-21T07:41:10;23.00;49.00
51613;DHT22;37694;51.748;14.326;2023-11-21T07:43:36;23.00;48.90
51613;DHT22;37694;51.748;14.326;2023-11-21T07:46:03;23.00;49.30
51613;DHT22;37694;51.748;14.326;2023-11-21T07:48:32;23.00;49.50
51613;DHT22;37694;51.748;14.326;2023-11-21T07:50:58;23.00;49.50
51613;DHT22;37694;51.748;14.326;2023-11-21T07:53:27;22.90;49.60
51613;DHT22;37694;51.748;14.326;2023-11-21T07:55:56;22.90;49.60
51613;DHT22;37694;51.748;14.326;2023-11-21T07:58:21;22.90;49.60
51613;DHT22;37694;51.748;14.326;2023-11-21T08:00:47;22.90;49.70
51613;DHT22;37694;51.748;14.326;2023-11-21T08:03:16;22.90;49.80
51613;DHT22;37694;51.748;14.326;2023-11-21T08:05:42;22.90;50.10
51613;DHT22;37694;51.748;14.326;2023-11-21T08:08:08;22.90;50.00
51613;DHT22;37694;51.748;14.326;2023-11-21T08:10:34;23.00;50.60
51613;DHT22;37694;51.748;14.326;2023-11-21T08:13:01;23.00;50.60
51613;DHT22;37694;51.748;14.326;2023-11-21T08:15:27;23.00;50.90
51613;DHT22;37694;51.748;14.326;2023-11-21T08:17:53;23.00;50.70
51613;DHT22;37694;51.748;14.326;2023-11-21T08:20:19;23.00;50.80
51613;DHT22;37694;51.748;14.326;2023-11-21T08:22:45;23.00;50.60
51613;DHT22;37694;51.748;14.326;2023-11-21T08:25:13;22.90;50.70
51613;DHT22;37694;51.748;14.326;2023-11-21T08:27:38;23.00;50.30
51613;DHT22;37694;51.748;14.326;2023-11-21T08:30:04;23.10;50.00
51613;DHT22;37694;51.748;14.326;2023-11-21T08:32:30;23.60;49.10
51613;DHT22;37694;51.748;14.326;2023-11-21T08:34:58;24.10;47.80
51613;DHT22;37694;51.748;14.326;2023-11-21T08:37:23;24.60;46.70
51613;DHT22;37694;51.748;14.326;2023-11-21T08:39:49;25.00;45.80
51613;DHT22;37694;51.748;14.326;2023-11-21T08:42:15;25.30;45.10
51613;DHT22;37694;51.748;14.326;2023-11-21T08:44:41;25.50;44.30
51613;DHT22;37694;51.748;14.326;2023-11-21T08:47:07;25.50;44.00
51613;DHT22;37694;51.748;14.326;2023-11-21T08:49:33;25.30;44.30
51613;DHT22;37694;51.748;14.326;2023-11-21T08:51:58;25.10;43.90
51613;DHT22;37694;51.748;14.326;2023-11-21T08:54:27;24.80;44.00
51613;DHT22;37694;51.748;14.326;2023-11-21T08:56:54;24.70;44.50
51613;DHT22;37694;51.748;14.326;2023-11-21T08:59:20;24.50;44.80
51613;DHT22;37694;51.748;14.326;2023-11-21T09:01:47;24.30;44.40
51613;DHT22;37694;51.748;14.326;2023-11-21T09:04:13;24.20;45.10
51613;DHT22;37694;51.748;14.326;2023-11-21T09:06:39;24.10;45.60
51613;DHT22;37694;51.748;14.326;2023-11-21T09:09:05;24.00;46.80
51613;DHT22;37694;51.748;14.326;2023-11-21T09:11:34;24.00;46.70
51613;DHT22;37694;51.748;14.326;2023-11-21T09:14:01;23.90;46.50
51613;DHT22;37694;51.748;14.326;2023-11-21T09:16:27;23.90;47.10
51613;DHT22;37694;51.748;14.326;2023-11-21T09:18:52;23.90;47.20
51613;DHT22;37694;51.748;14.326;2023-11-21T09:21:18;23.90;47.60
51613;DHT22;37694;51.748;14.326;2023-11-21T09:23:47;23.90;47.30
51613;DHT22;37694;51.748;14.326;2023-11-21T09:26:13;23.80;47.40
51613;DHT22;37694;51.748;14.326;2023-11-21T09:28:42;23.80;47.80
51613;DHT22;37694;51.748;14.326;2023-11-21T09:31:11;23.80;48.10
51613;DHT22;37694;51.748;14.326;2023-11-21T09:33:37;23.70;47.90
51613;DHT22;37694;51.748;14.326;2023-11-21T09:36:04;23.70;47.90
51613;DHT22;37694;51.748;14.326;2023-11-21T09:38:30;23.70;48.10
51613;DHT22;37694;51.748;14.326;2023-11-21T09:40:56;23.70;48.20
51613;DHT22;37694;51.748;14.326;2023-11-21T09:43:25;23.70;48.30
51613;DHT22;37694;51.748;14.326;2023-11-21T09:46:05;23.70;48.30
51613;DHT22;37694;51.748;14.326;2023-11-21T09:48:32;23.70;48.30
51613;DHT22;37694;51.748;14.326;2023-11-21T09:51:00;23.70;48.60
51613;DHT22;37694;51.748;14.326;2023-11-21T09:53:31;23.70;48.30
51613;DHT22;37694;51.748;14.326;2023-11-21T09:55:57;23.70;48.20
51613;DHT22;37694;51.748;14.326;2023-11-21T09:58:27;23.60;48.30
51613;DHT22;37694;51.748;14.326;2023-11-21T10:00:57;23.60;48.20
51613;DHT22;37694;51.748;14.326;2023-11-21T10:03:25;23.60;48.50
51613;DHT22;37694;51.748;14.326;2023-11-21T10:05:51;23.60;48.50
51613;DHT22;37694;51.748;14.326;2023-11-21T10:08:20;23.60;48.50
51613;DHT22;37694;51.748;14.326;2023-11-21T10:10:52;23.60;48.60
51613;DHT22;37694;51.748;14.326;2023-11-21T10:13:19;23.50;48.50
51613;DHT22;37694;51.748;14.326;2023-11-21T10:15:49;23.50;48.60
51613;DHT22;37694;51.748;14.326;2023-11-21T10:18:17;23.50;48.40
51613;DHT22;37694;51.748;14.326;2023-11-21T10:20:43;23.50;49.40
51613;DHT22;37694;51.748;14.326;2023-11-21T10:23:11;23.50;48.70
51613;DHT22;37694;51.748;14.326;2023-11-21T10:25:38;23.50;48.70
51613;DHT22;37694;51.748;14.326;2023-11-21T10:28:04;23.40;48.60
51613;DHT22;37694;51.748;14.326;2023-11-21T10:30:34;23.40;48.70
51613;DHT22;37694;51.748;14.326;2023-11-21T10:33:02;23.40;48.40
51613;DHT22;37694;51.748;14.326;2023-11-21T10:35:48;23.40;48.60
51613;DHT22;37694;51.748;14.326;2023-11-21T10:38:20;23.40;48.50
51613;DHT22;37694;51.748;14.326;2023-11-21T10:40:50;23.40;48.70
51613;DHT22;37694;51.748;14.326;2023-11-21T10:43:17;23.30;48.60
51613;DHT22;37694;51.748;14.326;2023-11-21T10:45:44;23.40;48.60
51613;DHT22;37694;51.748;14.326;2023-11-21T10:48:12;23.30;48.50
51613;DHT22;37694;51.748;14.326;2023-11-21T10:50:41;23.40;48.50
51613;DHT22;37694;51.748;14.326;2023-11-21T10:53:07;23.30;48.60
51613;DHT22;37694;51.748;14.326;2023-11-21T10:55:34;23.30;48.90
51613;DHT22;37694;51.748;14.326;2023-11-21T10:58:01;23.30;48.60
51613;DHT22;37694;51.748;14.326;2023-11-21T11:00:29;23.30;48.60
51613;DHT22;37694;51.748;14.326;2023-11-21T11:02:55;23.30;48.80
51613;DHT22;37694;51.748;14.326;2023-11-21T11:05:22;23.30;48.70
51613;DHT22;37694;51.748;14.326;2023-11-21T11:07:51;23.30;48.70
51613;DHT22;37694;51.748;14.326;2023-11-21T11:10:21;23.30;48.90
51613;DHT22;37694;51.748;14.326;2023-11-21T11:12:48;23.30;48.70
51613;DHT22;37694;51.748;14.326;2023-11-21T11:15:16;23.30;48.70
51613;DHT22;37694;51.748;14.326;2023-11-21T11:17:42;23.30;48.60
51613;DHT22;37694;51.748;14.326;2023-11-21T11:20:12;23.30;48.70
51613;DHT22;37694;51.748;14.326;2023-11-21T11:23:27;23.30;48.50
51613;DHT22;37694;51.748;14.326;2023-11-21T11:28:47;23.30;48.60
51613;DHT22;37694;51.748;14.326;2023-11-21T11:31:36;23.30;48.40
51613;DHT22;37694;51.748;14.326;2023-11-21T11:34:32;23.20;48.50
51613;DHT22;37694;51.748;14.326;2023-11-21T11:37:04;23.20;48.40
51613;DHT22;37694;51.748;14.326;2023-11-21T11:39:35;23.20;48.70
51613;DHT22;37694;51.748;14.326;2023-11-21T11:42:03;23.20;48.70
51613;DHT22;37694;51.748;14.326;2023-11-21T11:47:29;23.20;48.40
51613;DHT22;37694;51.748;14.326;2023-11-21T11:50:13;23.20;49.60
51613;DHT22;37694;51.748;14.326;2023-11-21T11:52:51;23.20;48.50
51613;DHT22;37694;51.748;14.326;2023-11-21T11:55:20;23.10;48.90
51613;DHT22;37694;51.748;14.326;2023-11-21T11:57:51;23.20;48.90
51613;DHT22;37694;51.748;14.326;2023-11-21T12:02:54;23.20;48.90
51613;DHT22;37694;51.748;14.326;2023-11-21T12:05:23;23.10;48.60
51613;DHT22;37694;51.748;14.326;2023-11-21T12:07:56;23.10;48.60
51613;DHT22;37694;51.748;14.326;2023-11-21T12:10:27;23.10;48.70
51613;DHT22;37694;51.748;14.326;2023-11-21T12:12:55;23.10;49.00
51613;DHT22;37694;51.748;14.326;2023-11-21T12:15:21;23.10;48.70
51613;DHT22;37694;51.748;14.326;2023-11-21T12:17:48;23.10;49.10
51613;DHT22;37694;51.748;14.326;2023-11-21T12:20:16;23.10;49.20
51613;DHT22;37694;51.748;14.326;2023-11-21T12:22:51;23.10;49.00
51613;DHT22;37694;51.748;14.326;2023-11-21T12:25:21;23.10;48.80
51613;DHT22;37694;51.748;14.326;2023-11-21T12:27:53;23.00;48.80
51613;DHT22;37694;51.748;14.326;2023-11-21T12:30:21;23.00;49.50
51613;DHT22;37694;51.748;14.326;2023-11-21T12:32:52;23.00;49.30
51613;DHT22;37694;51.748;14.326;2023-11-21T12:35:19;23.00;49.20
51613;DHT22;37694;51.748;14.326;2023-11-21T12:37:47;23.00;49.10
51613;DHT22;37694;51.748;14.326;2023-11-21T12:40:14;23.00;49.00
51613;DHT22;37694;51.748;14.326;2023-11-21T12:42:44;23.00;48.40
51613;DHT22;37694;51.748;14.326;2023-11-21T12:47:41;23.00;49.40
51613;DHT22;37694;51.748;14.326;2023-11-21T12:50:08;23.00;49.50
51613;DHT22;37694;51.748;14.326;2023-11-21T12:52:41;23.00;49.30
51613;DHT22;37694;51.748;14.326;2023-11-21T12:55:08;23.00;49.30
51613;DHT22;37694;51.748;14.326;2023-11-21T12:57:35;23.00;49.60
51613;DHT22;37694;51.748;14.326;2023-11-21T13:00:04;23.00;49.30
51613;DHT22;37694;51.748;14.326;2023-11-21T13:02:37;23.00;49.30
51613;DHT22;37694;51.748;14.326;2023-11-21T13:05:04;22.90;49.60
51613;DHT22;37694;51.748;14.326;2023-11-21T13:07:44;23.00;49.70
51613;DHT22;37694;51.748;14.326;2023-11-21T13:10:13;23.00;49.30
51613;DHT22;37694;51.748;14.326;2023-11-21T13:12:46;23.00;49.40
51613;DHT22;37694;51.748;14.326;2023-11-21T13:15:17;23.00;49.10
51613;DHT22;37694;51.748;14.326;2023-11-21T13:17:43;23.00;49.20
51613;DHT22;37694;51.748;14.326;2023-11-21T13:20:11;23.00;49.20
51613;DHT22;37694;51.748;14.326;2023-11-21T13:22:54;23.00;49.10
51613;DHT22;37694;51.748;14.326;2023-11-21T13:25:30;23.00;49.00
51613;DHT22;37694;51.748;14.326;2023-11-21T13:27:59;22.90;49.10
51613;DHT22;37694;51.748;14.326;2023-11-21T13:30:26;22.90;49.10
51613;DHT22;37694;51.748;14.326;2023-11-21T13:32:53;22.90;49.20
51613;DHT22;37694;51.748;14.326;2023-11-21T13:35:23;22.90;49.20
51613;DHT22;37694;51.748;14.326;2023-11-21T13:37:57;22.90;49.10
51613;DHT22;37694;51.748;14.326;2023-11-21T13:40:26;22.80;49.10
51613;DHT22;37694;51.748;14.326;2023-11-21T13:42:55;22.90;49.10
51613;DHT22;37694;51.748;14.326;2023-11-21T13:45:25;22.90;49.10
51613;DHT22;37694;51.748;14.326;2023-11-21T13:47:53;22.80;49.10
51613;DHT22;37694;51.748;14.326;2023-11-21T13:50:30;22.80;49.10
51613;DHT22;37694;51.748;14.326;2023-11-21T13:53:01;22.90;49.30
51613;DHT22;37694;51.748;14.326;2023-11-21T13:55:42;22.80;49.30
51613;DHT22;37694;51.748;14.326;2023-11-21T13:58:07;22.80;49.00
51613;DHT22;37694;51.748;14.326;2023-11-21T14:00:37;22.80;49.50
51613;DHT22;37694;51.748;14.326;2023-11-21T14:03:13;22.80;49.20
51613;DHT22;37694;51.748;14.326;2023-11-21T14:05:46;22.80;49.00
51613;DHT22;37694;51.748;14.326;2023-11-21T14:08:15;22.80;49.00
51613;DHT22;37694;51.748;14.326;2023-11-21T14:10:45;22.80;48.70
51613;DHT22;37694;51.748;14.326;2023-11-21T14:13:16;22.80;48.80
51613;DHT22;37694;51.748;14.326;2023-11-21T14:15:43;22.70;48.70
51613;DHT22;37694;51.748;14.326;2023-11-21T14:18:11;22.70;48.80
51613;DHT22;37694;51.748;14.326;2023-11-21T14:20:40;22.70;49.10
51613;DHT22;37694;51.748;14.326;2023-11-21T14:23:07;22.70;49.20
51613;DHT22;37694;51.748;14.326;2023-11-21T14:25:37;22.70;49.20
51613;DHT22;37694;51.748;14.326;2023-11-21T14:28:03;22.70;49.00
51613;DHT22;37694;51.748;14.326;2023-11-21T14:30:34;22.70;48.90
51613;DHT22;37694;51.748;14.326;2023-11-21T14:33:02;22.70;48.90
51613;DHT22;37694;51.748;14.326;2023-11-21T14:35:28;22.70;48.00
51613;DHT22;37694;51.748;14.326;2023-11-21T14:38:00;22.70;48.20
51613;DHT22;37694;51.748;14.326;2023-11-21T14:40:28;22.70;48.50
51613;DHT22;37694;51.748;14.326;2023-11-21T14:42:59;22.70;48.70
51613;DHT22;37694;51.748;14.326;2023-11-21T14:45:25;22.70;48.80
51613;DHT22;37694;51.748;14.326;2023-11-21T14:47:52;22.60;48.80
51613;DHT22;37694;51.748;14.326;2023-11-21T14:50:47;22.60;48.80
51613;DHT22;37694;51.748;14.326;2023-11-21T14:53:33;22.60;49.10
51613;DHT22;37694;51.748;14.326;2023-11-21T14:56:22;22.60;49.20
51613;DHT22;37694;51.748;14.326;2023-11-21T14:59:00;22.60;49.50
51613;DHT22;37694;51.748;14.326;2023-11-21T15:01:33;22.60;49.50
51613;DHT22;37694;51.748;14.326;2023-11-21T15:04:10;22.60;48.40
51613;DHT22;37694;51.748;14.326;2023-11-21T15:06:57;22.70;48.60
51613;DHT22;37694;51.748;14.326;2023-11-21T15:09:24;22.60;49.00
51613;DHT22;37694;51.748;14.326;2023-11-21T15:12:02;22.60;49.10
51613;DHT22;37694;51.748;14.326;2023-11-21T15:14:39;22.60;48.90
51613;DHT22;37694;51.748;14.326;2023-11-21T15:17:04;22.60;49.00
51613;DHT22;37694;51.748;14.326;2023-11-21T15:19:31;22.60;48.90
51613;DHT22;37694;51.748;14.326;2023-11-21T15:21:57;22.60;48.90
51613;DHT22;37694;51.748;14.326;2023-11-21T15:24:23;22.60;49.00
51613;DHT22;37694;51.748;14.326;2023-11-21T15:26:50;22.60;49.00
51613;DHT22;37694;51.748;14.326;2023-11-21T15:29:16;22.60;48.90
51613;DHT22;37694;51.748;14.326;2023-11-21T15:31:42;22.60;48.90